sensor_id;sensor_type;location;lat;lon;timestamp;P1;durP1;ratioP1;P2;durP2;ratioP2
13641;SDS011;6894;52.196;9.904;2023-07-24T00:01:30;1.30;;;0.97;;
13641;SDS011;6894;52.196;9.904;2023-07-24T00:03:57;4.47;;;1.00;;
13641;SDS011;6894;52.196;9.904;2023-07-24T00:06:24;1.73;;;1.10;;
13641;SDS011;6894;52.196;9.904;2023-07-24T00:08:51;1.30;;;1.20;;
13641;SDS011;6894;52.196;9.904;2023-07-24T00:11:19;1.27;;;1.00;;
13641;SDS011;6894;52.196;9.904;2023-07-24T00:13:46;1.57;;;1.10;;
13641;SDS011;6894;52.196;9.904;2023-07-24T00:16:13;1.50;;;1.00;;
13641;SDS011;6894;52.196;9.904;2023-07-24T00:18:40;1.60;;;1.30;;
13641;SDS011;6894;52.196;9.904;2023-07-24T00:21:07;2.40;;;1.20;;
13641;SDS011;6894;52.196;9.904;2023-07-24T00:23:35;1.27;;;1.17;;
13641;SDS011;6894;52.196;9.904;2023-07-24T00:26:02;1.00;;;0.80;;
13641;SDS011;6894;52.196;9.904;2023-07-24T00:28:30;2.37;;;1.00;;
13641;SDS011;6894;52.196;9.904;2023-07-24T00:30:58;1.70;;;0.97;;
13641;SDS011;6894;52.196;9.904;2023-07-24T00:33:25;1.17;;;1.07;;
13641;SDS011;6894;52.196;9.904;2023-07-24T00:35:54;0.90;;;0.90;;
13641;SDS011;6894;52.196;9.904;2023-07-24T00:38:22;1.00;;;1.00;;
13641;SDS011;6894;52.196;9.904;2023-07-24T00:40:49;1.67;;;1.00;;
13641;SDS011;6894;52.196;9.904;2023-07-24T00:43:16;2.83;;;0.90;;
13641;SDS011;6894;52.196;9.904;2023-07-24T00:45:44;1.13;;;0.90;;
13641;SDS011;6894;52.196;9.904;2023-07-24T00:48:13;1.33;;;1.23;;
13641;SDS011;6894;52.196;9.904;2023-07-24T00:50:40;1.07;;;1.00;;
13641;SDS011;6894;52.196;9.904;2023-07-24T00:53:08;1.27;;;1.10;;
13641;SDS011;6894;52.196;9.904;2023-07-24T00:55:36;1.20;;;1.10;;
13641;SDS011;6894;52.196;9.904;2023-07-24T00:58:03;2.60;;;1.10;;
13641;SDS011;6894;52.196;9.904;2023-07-24T01:00:30;1.57;;;1.07;;
13641;SDS011;6894;52.196;9.904;2023-07-24T01:02:58;1.10;;;1.00;;
13641;SDS011;6894;52.196;9.904;2023-07-24T01:05:25;3.00;;;1.37;;
13641;SDS011;6894;52.196;9.904;2023-07-24T01:07:52;1.97;;;1.40;;
13641;SDS011;6894;52.196;9.904;2023-07-24T01:10:19;2.23;;;1.20;;
13641;SDS011;6894;52.196;9.904;2023-07-24T01:12:55;1.70;;;1.33;;
13641;SDS011;6894;52.196;9.904;2023-07-24T01:15:29;1.43;;;1.33;;
13641;SDS011;6894;52.196;9.904;2023-07-24T01:18:00;1.43;;;1.30;;
13641;SDS011;6894;52.196;9.904;2023-07-24T01:20:32;1.37;;;1.27;;
13641;SDS011;6894;52.196;9.904;2023-07-24T01:23:11;1.37;;;1.27;;
13641;SDS011;6894;52.196;9.904;2023-07-24T01:25:54;1.67;;;1.10;;
13641;SDS011;6894;52.196;9.904;2023-07-24T01:28:22;2.13;;;1.40;;
13641;SDS011;6894;52.196;9.904;2023-07-24T01:30:49;3.97;;;1.63;;
13641;SDS011;6894;52.196;9.904;2023-07-24T01:33:16;1.80;;;1.33;;
13641;SDS011;6894;52.196;9.904;2023-07-24T01:35:43;1.60;;;1.50;;
13641;SDS011;6894;52.196;9.904;2023-07-24T01:38:10;1.43;;;1.33;;
13641;SDS011;6894;52.196;9.904;2023-07-24T01:40:39;1.70;;;1.40;;
13641;SDS011;6894;52.196;9.904;2023-07-24T01:43:08;1.73;;;1.47;;
13641;SDS011;6894;52.196;9.904;2023-07-24T01:45:34;2.13;;;1.47;;
13641;SDS011;6894;52.196;9.904;2023-07-24T01:48:02;1.70;;;1.60;;
13641;SDS011;6894;52.196;9.904;2023-07-24T01:50:29;2.60;;;1.73;;
13641;SDS011;6894;52.196;9.904;2023-07-24T01:52:56;1.50;;;1.40;;
13641;SDS011;6894;52.196;9.904;2023-07-24T01:55:23;1.90;;;1.47;;
13641;SDS011;6894;52.196;9.904;2023-07-24T01:57:49;1.77;;;1.67;;
13641;SDS011;6894;52.196;9.904;2023-07-24T02:00:17;1.40;;;1.30;;
13641;SDS011;6894;52.196;9.904;2023-07-24T02:02:44;1.43;;;1.33;;
13641;SDS011;6894;52.196;9.904;2023-07-24T02:05:11;2.00;;;1.67;;
13641;SDS011;6894;52.196;9.904;2023-07-24T02:07:38;2.83;;;1.70;;
13641;SDS011;6894;52.196;9.904;2023-07-24T02:10:05;1.57;;;1.47;;
13641;SDS011;6894;52.196;9.904;2023-07-24T02:12:32;1.60;;;1.47;;
13641;SDS011;6894;52.196;9.904;2023-07-24T02:14:59;1.67;;;1.37;;
13641;SDS011;6894;52.196;9.904;2023-07-24T02:17:27;2.13;;;1.60;;
13641;SDS011;6894;52.196;9.904;2023-07-24T02:19:54;1.50;;;1.40;;
13641;SDS011;6894;52.196;9.904;2023-07-24T02:22:20;1.50;;;1.40;;
13641;SDS011;6894;52.196;9.904;2023-07-24T02:24:47;1.90;;;1.70;;
13641;SDS011;6894;52.196;9.904;2023-07-24T02:27:24;1.27;;;1.17;;
13641;SDS011;6894;52.196;9.904;2023-07-24T02:29:51;1.40;;;1.30;;
13641;SDS011;6894;52.196;9.904;2023-07-24T02:32:18;1.47;;;1.37;;
13641;SDS011;6894;52.196;9.904;2023-07-24T02:34:47;1.50;;;1.40;;
13641;SDS011;6894;52.196;9.904;2023-07-24T02:37:15;1.40;;;1.30;;
13641;SDS011;6894;52.196;9.904;2023-07-24T02:39:41;1.80;;;1.40;;
13641;SDS011;6894;52.196;9.904;2023-07-24T02:42:08;2.33;;;1.60;;
13641;SDS011;6894;52.196;9.904;2023-07-24T02:44:35;1.63;;;1.30;;
13641;SDS011;6894;52.196;9.904;2023-07-24T02:47:02;1.30;;;1.20;;
13641;SDS011;6894;52.196;9.904;2023-07-24T02:49:29;1.57;;;1.23;;
13641;SDS011;6894;52.196;9.904;2023-07-24T02:51:57;1.53;;;1.43;;
13641;SDS011;6894;52.196;9.904;2023-07-24T02:54:25;1.67;;;1.40;;
13641;SDS011;6894;52.196;9.904;2023-07-24T02:56:51;1.60;;;1.50;;
13641;SDS011;6894;52.196;9.904;2023-07-24T02:59:18;2.13;;;1.77;;
13641;SDS011;6894;52.196;9.904;2023-07-24T03:01:45;1.50;;;1.40;;
13641;SDS011;6894;52.196;9.904;2023-07-24T03:04:12;1.27;;;1.17;;
13641;SDS011;6894;52.196;9.904;2023-07-24T03:06:39;1.50;;;1.40;;
13641;SDS011;6894;52.196;9.904;2023-07-24T03:09:07;1.53;;;1.43;;
13641;SDS011;6894;52.196;9.904;2023-07-24T03:11:34;1.70;;;1.40;;
13641;SDS011;6894;52.196;9.904;2023-07-24T03:14:01;1.40;;;1.30;;
13641;SDS011;6894;52.196;9.904;2023-07-24T03:16:26;1.30;;;1.20;;
13641;SDS011;6894;52.196;9.904;2023-07-24T03:18:53;1.40;;;1.30;;
13641;SDS011;6894;52.196;9.904;2023-07-24T03:21:20;1.83;;;1.40;;
13641;SDS011;6894;52.196;9.904;2023-07-24T03:23:47;1.70;;;1.50;;
13641;SDS011;6894;52.196;9.904;2023-07-24T03:26:15;2.23;;;1.60;;
13641;SDS011;6894;52.196;9.904;2023-07-24T03:28:42;1.97;;;1.73;;
13641;SDS011;6894;52.196;9.904;2023-07-24T03:31:08;1.77;;;1.33;;
13641;SDS011;6894;52.196;9.904;2023-07-24T03:33:35;1.90;;;1.30;;
13641;SDS011;6894;52.196;9.904;2023-07-24T03:36:02;1.93;;;1.20;;
13641;SDS011;6894;52.196;9.904;2023-07-24T03:38:29;3.13;;;1.63;;
13641;SDS011;6894;52.196;9.904;2023-07-24T03:40:56;1.63;;;1.40;;
13641;SDS011;6894;52.196;9.904;2023-07-24T03:43:24;2.30;;;1.77;;
13641;SDS011;6894;52.196;9.904;2023-07-24T03:45:51;1.17;;;1.10;;
13641;SDS011;6894;52.196;9.904;2023-07-24T03:48:17;2.23;;;1.20;;
13641;SDS011;6894;52.196;9.904;2023-07-24T03:50:44;1.50;;;1.10;;
13641;SDS011;6894;52.196;9.904;2023-07-24T03:53:11;2.30;;;1.70;;
13641;SDS011;6894;52.196;9.904;2023-07-24T03:55:37;2.60;;;1.50;;
13641;SDS011;6894;52.196;9.904;2023-07-24T03:58:04;1.70;;;1.53;;
13641;SDS011;6894;52.196;9.904;2023-07-24T04:00:32;1.67;;;1.50;;
13641;SDS011;6894;52.196;9.904;2023-07-24T04:02:59;4.03;;;1.80;;
13641;SDS011;6894;52.196;9.904;2023-07-24T04:05:25;2.37;;;1.43;;
13641;SDS011;6894;52.196;9.904;2023-07-24T04:07:53;2.10;;;1.50;;
13641;SDS011;6894;52.196;9.904;2023-07-24T04:10:20;2.53;;;1.53;;
13641;SDS011;6894;52.196;9.904;2023-07-24T04:12:47;1.30;;;1.20;;
13641;SDS011;6894;52.196;9.904;2023-07-24T04:15:14;1.87;;;1.60;;
13641;SDS011;6894;52.196;9.904;2023-07-24T04:17:42;2.83;;;1.50;;
13641;SDS011;6894;52.196;9.904;2023-07-24T04:20:09;1.40;;;1.17;;
13641;SDS011;6894;52.196;9.904;2023-07-24T04:22:36;1.97;;;1.73;;
13641;SDS011;6894;52.196;9.904;2023-07-24T04:25:03;2.50;;;1.60;;
13641;SDS011;6894;52.196;9.904;2023-07-24T04:27:30;2.23;;;1.70;;
13641;SDS011;6894;52.196;9.904;2023-07-24T04:29:57;2.07;;;1.17;;
13641;SDS011;6894;52.196;9.904;2023-07-24T04:32:25;1.57;;;1.30;;
13641;SDS011;6894;52.196;9.904;2023-07-24T04:34:53;2.10;;;1.77;;
13641;SDS011;6894;52.196;9.904;2023-07-24T04:37:20;1.57;;;1.30;;
13641;SDS011;6894;52.196;9.904;2023-07-24T04:39:47;2.67;;;1.60;;
13641;SDS011;6894;52.196;9.904;2023-07-24T04:42:13;2.83;;;1.50;;
13641;SDS011;6894;52.196;9.904;2023-07-24T04:44:40;1.60;;;1.43;;
13641;SDS011;6894;52.196;9.904;2023-07-24T04:47:07;2.17;;;1.47;;
13641;SDS011;6894;52.196;9.904;2023-07-24T04:49:33;1.63;;;1.40;;
13641;SDS011;6894;52.196;9.904;2023-07-24T04:52:02;2.23;;;1.50;;
13641;SDS011;6894;52.196;9.904;2023-07-24T04:54:29;1.80;;;1.30;;
13641;SDS011;6894;52.196;9.904;2023-07-24T04:56:55;1.93;;;1.37;;
13641;SDS011;6894;52.196;9.904;2023-07-24T04:59:22;1.50;;;1.40;;
13641;SDS011;6894;52.196;9.904;2023-07-24T05:01:49;1.43;;;1.17;;
13641;SDS011;6894;52.196;9.904;2023-07-24T05:04:16;2.23;;;1.40;;
13641;SDS011;6894;52.196;9.904;2023-07-24T05:06:43;2.80;;;1.30;;
13641;SDS011;6894;52.196;9.904;2023-07-24T05:09:11;2.13;;;1.20;;
13641;SDS011;6894;52.196;9.904;2023-07-24T05:11:37;1.47;;;1.10;;
13641;SDS011;6894;52.196;9.904;2023-07-24T05:14:04;2.03;;;1.20;;
13641;SDS011;6894;52.196;9.904;2023-07-24T05:16:31;1.40;;;1.23;;
13641;SDS011;6894;52.196;9.904;2023-07-24T05:18:57;2.43;;;1.77;;
13641;SDS011;6894;52.196;9.904;2023-07-24T05:21:24;1.90;;;1.40;;
13641;SDS011;6894;52.196;9.904;2023-07-24T05:23:51;1.33;;;1.10;;
13641;SDS011;6894;52.196;9.904;2023-07-24T05:26:19;1.97;;;1.30;;
13641;SDS011;6894;52.196;9.904;2023-07-24T05:28:47;2.17;;;1.33;;
13641;SDS011;6894;52.196;9.904;2023-07-24T05:31:13;1.60;;;1.30;;
13641;SDS011;6894;52.196;9.904;2023-07-24T05:33:40;2.33;;;1.40;;
13641;SDS011;6894;52.196;9.904;2023-07-24T05:36:07;4.33;;;1.53;;
13641;SDS011;6894;52.196;9.904;2023-07-24T05:38:33;2.70;;;1.43;;
13641;SDS011;6894;52.196;9.904;2023-07-24T05:41:00;2.93;;;1.60;;
13641;SDS011;6894;52.196;9.904;2023-07-24T05:43:30;2.67;;;1.60;;
13641;SDS011;6894;52.196;9.904;2023-07-24T05:45:57;2.60;;;1.70;;
13641;SDS011;6894;52.196;9.904;2023-07-24T05:48:24;3.03;;;1.40;;
13641;SDS011;6894;52.196;9.904;2023-07-24T05:50:51;7.93;;;1.63;;
13641;SDS011;6894;52.196;9.904;2023-07-24T05:53:18;3.43;;;1.80;;
13641;SDS011;6894;52.196;9.904;2023-07-24T05:55:45;8.33;;;1.80;;
13641;SDS011;6894;52.196;9.904;2023-07-24T05:58:11;2.90;;;1.90;;
13641;SDS011;6894;52.196;9.904;2023-07-24T06:00:39;4.37;;;1.63;;
13641;SDS011;6894;52.196;9.904;2023-07-24T06:03:06;3.97;;;1.57;;
13641;SDS011;6894;52.196;9.904;2023-07-24T06:05:33;3.20;;;1.60;;
13641;SDS011;6894;52.196;9.904;2023-07-24T06:07:59;2.27;;;1.40;;
13641;SDS011;6894;52.196;9.904;2023-07-24T06:10:26;1.97;;;1.60;;
13641;SDS011;6894;52.196;9.904;2023-07-24T06:12:53;1.50;;;1.40;;
13641;SDS011;6894;52.196;9.904;2023-07-24T06:15:21;1.70;;;1.53;;
13641;SDS011;6894;52.196;9.904;2023-07-24T06:17:50;3.17;;;1.83;;
13641;SDS011;6894;52.196;9.904;2023-07-24T06:20:17;2.83;;;1.97;;
13641;SDS011;6894;52.196;9.904;2023-07-24T06:22:43;2.73;;;1.97;;
13641;SDS011;6894;52.196;9.904;2023-07-24T06:25:10;2.73;;;1.63;;
13641;SDS011;6894;52.196;9.904;2023-07-24T06:27:37;2.23;;;2.03;;
13641;SDS011;6894;52.196;9.904;2023-07-24T06:30:04;2.87;;;1.80;;
13641;SDS011;6894;52.196;9.904;2023-07-24T06:32:31;2.63;;;2.20;;
13641;SDS011;6894;52.196;9.904;2023-07-24T06:34:59;2.80;;;1.90;;
13641;SDS011;6894;52.196;9.904;2023-07-24T06:37:26;2.83;;;2.30;;
13641;SDS011;6894;52.196;9.904;2023-07-24T06:39:53;2.20;;;1.77;;
13641;SDS011;6894;52.196;9.904;2023-07-24T06:42:20;2.20;;;1.97;;
13641;SDS011;6894;52.196;9.904;2023-07-24T06:44:46;3.20;;;1.73;;
13641;SDS011;6894;52.196;9.904;2023-07-24T06:47:13;2.33;;;1.87;;
13641;SDS011;6894;52.196;9.904;2023-07-24T06:49:40;4.50;;;2.13;;
13641;SDS011;6894;52.196;9.904;2023-07-24T06:52:08;2.27;;;1.83;;
13641;SDS011;6894;52.196;9.904;2023-07-24T06:54:34;2.23;;;2.00;;
13641;SDS011;6894;52.196;9.904;2023-07-24T06:57:01;4.30;;;2.00;;
13641;SDS011;6894;52.196;9.904;2023-07-24T06:59:28;2.33;;;2.00;;
13641;SDS011;6894;52.196;9.904;2023-07-24T07:01:55;3.40;;;2.40;;
13641;SDS011;6894;52.196;9.904;2023-07-24T07:04:21;2.53;;;2.27;;
13641;SDS011;6894;52.196;9.904;2023-07-24T07:06:48;2.40;;;2.20;;
13641;SDS011;6894;52.196;9.904;2023-07-24T07:09:16;3.53;;;2.33;;
13641;SDS011;6894;52.196;9.904;2023-07-24T07:11:43;3.70;;;2.30;;
13641;SDS011;6894;52.196;9.904;2023-07-24T07:14:10;3.07;;;2.50;;
13641;SDS011;6894;52.196;9.904;2023-07-24T07:16:37;2.90;;;2.20;;
13641;SDS011;6894;52.196;9.904;2023-07-24T07:19:04;2.60;;;2.17;;
13641;SDS011;6894;52.196;9.904;2023-07-24T07:21:31;5.00;;;2.57;;
13641;SDS011;6894;52.196;9.904;2023-07-24T07:23:57;2.63;;;1.93;;
13641;SDS011;6894;52.196;9.904;2023-07-24T07:26:26;4.00;;;2.93;;
13641;SDS011;6894;52.196;9.904;2023-07-24T07:28:54;2.23;;;1.97;;
13641;SDS011;6894;52.196;9.904;2023-07-24T07:31:21;3.13;;;2.03;;
13641;SDS011;6894;52.196;9.904;2023-07-24T07:33:47;2.67;;;1.77;;
13641;SDS011;6894;52.196;9.904;2023-07-24T07:36:14;3.27;;;2.10;;
13641;SDS011;6894;52.196;9.904;2023-07-24T07:38:42;3.90;;;2.00;;
13641;SDS011;6894;52.196;9.904;2023-07-24T07:41:09;2.63;;;1.97;;
13641;SDS011;6894;52.196;9.904;2023-07-24T07:43:37;2.77;;;2.20;;
13641;SDS011;6894;52.196;9.904;2023-07-24T07:46:04;2.30;;;2.03;;
13641;SDS011;6894;52.196;9.904;2023-07-24T07:48:30;2.57;;;2.37;;
13641;SDS011;6894;52.196;9.904;2023-07-24T07:50:58;4.83;;;2.27;;
13641;SDS011;6894;52.196;9.904;2023-07-24T07:53:24;2.90;;;2.07;;
13641;SDS011;6894;52.196;9.904;2023-07-24T07:55:55;2.67;;;2.27;;
13641;SDS011;6894;52.196;9.904;2023-07-24T07:58:22;3.17;;;2.20;;
13641;SDS011;6894;52.196;9.904;2023-07-24T08:00:50;3.63;;;2.40;;
13641;SDS011;6894;52.196;9.904;2023-07-24T08:03:17;4.53;;;2.97;;
13641;SDS011;6894;52.196;9.904;2023-07-24T08:05:43;2.90;;;2.53;;
13641;SDS011;6894;52.196;9.904;2023-07-24T08:08:10;2.53;;;2.00;;
13641;SDS011;6894;52.196;9.904;2023-07-24T08:10:37;5.67;;;2.63;;
13641;SDS011;6894;52.196;9.904;2023-07-24T08:13:04;2.87;;;2.57;;
13641;SDS011;6894;52.196;9.904;2023-07-24T08:15:33;3.70;;;2.43;;
13641;SDS011;6894;52.196;9.904;2023-07-24T08:18:03;4.80;;;2.70;;
13641;SDS011;6894;52.196;9.904;2023-07-24T08:20:30;3.50;;;2.83;;
13641;SDS011;6894;52.196;9.904;2023-07-24T08:22:58;3.33;;;2.20;;
13641;SDS011;6894;52.196;9.904;2023-07-24T08:25:24;4.57;;;2.57;;
13641;SDS011;6894;52.196;9.904;2023-07-24T08:27:51;3.90;;;2.63;;
13641;SDS011;6894;52.196;9.904;2023-07-24T08:30:18;2.50;;;2.20;;
13641;SDS011;6894;52.196;9.904;2023-07-24T08:32:45;2.83;;;2.30;;
13641;SDS011;6894;52.196;9.904;2023-07-24T08:35:13;3.80;;;2.47;;
13641;SDS011;6894;52.196;9.904;2023-07-24T08:37:42;3.40;;;2.13;;
13641;SDS011;6894;52.196;9.904;2023-07-24T08:40:09;2.17;;;1.97;;
13641;SDS011;6894;52.196;9.904;2023-07-24T08:42:37;2.13;;;1.80;;
13641;SDS011;6894;52.196;9.904;2023-07-24T08:45:06;2.00;;;1.80;;
13641;SDS011;6894;52.196;9.904;2023-07-24T08:47:37;2.83;;;1.90;;
13641;SDS011;6894;52.196;9.904;2023-07-24T08:50:06;2.80;;;1.87;;
13641;SDS011;6894;52.196;9.904;2023-07-24T08:52:37;2.30;;;2.07;;
13641;SDS011;6894;52.196;9.904;2023-07-24T08:55:04;2.50;;;2.03;;
13641;SDS011;6894;52.196;9.904;2023-07-24T08:57:32;2.90;;;2.30;;
13641;SDS011;6894;52.196;9.904;2023-07-24T08:59:59;2.10;;;1.70;;
13641;SDS011;6894;52.196;9.904;2023-07-24T09:02:29;2.53;;;1.97;;
13641;SDS011;6894;52.196;9.904;2023-07-24T09:04:56;4.33;;;2.20;;
13641;SDS011;6894;52.196;9.904;2023-07-24T09:07:24;2.23;;;1.93;;
13641;SDS011;6894;52.196;9.904;2023-07-24T09:09:52;3.30;;;1.90;;
13641;SDS011;6894;52.196;9.904;2023-07-24T09:12:19;4.63;;;2.40;;
13641;SDS011;6894;52.196;9.904;2023-07-24T09:14:47;3.37;;;2.40;;
13641;SDS011;6894;52.196;9.904;2023-07-24T09:17:14;2.50;;;2.30;;
13641;SDS011;6894;52.196;9.904;2023-07-24T09:19:41;3.40;;;2.17;;
13641;SDS011;6894;52.196;9.904;2023-07-24T09:22:09;4.73;;;2.70;;
13641;SDS011;6894;52.196;9.904;2023-07-24T09:24:37;3.77;;;2.60;;
13641;SDS011;6894;52.196;9.904;2023-07-24T09:27:06;2.83;;;2.43;;
13641;SDS011;6894;52.196;9.904;2023-07-24T09:29:34;4.57;;;2.40;;
13641;SDS011;6894;52.196;9.904;2023-07-24T09:32:01;2.67;;;2.47;;
13641;SDS011;6894;52.196;9.904;2023-07-24T09:34:29;2.87;;;2.30;;
13641;SDS011;6894;52.196;9.904;2023-07-24T09:36:57;3.43;;;2.07;;
13641;SDS011;6894;52.196;9.904;2023-07-24T09:39:24;2.73;;;2.20;;
13641;SDS011;6894;52.196;9.904;2023-07-24T09:41:52;2.43;;;2.00;;
13641;SDS011;6894;52.196;9.904;2023-07-24T09:44:21;2.23;;;2.03;;
13641;SDS011;6894;52.196;9.904;2023-07-24T09:46:51;3.37;;;1.80;;
13641;SDS011;6894;52.196;9.904;2023-07-24T09:49:18;2.43;;;1.97;;
13641;SDS011;6894;52.196;9.904;2023-07-24T09:51:45;3.33;;;2.13;;
13641;SDS011;6894;52.196;9.904;2023-07-24T09:54:17;2.30;;;2.10;;
13641;SDS011;6894;52.196;9.904;2023-07-24T09:56:49;2.33;;;2.03;;
13641;SDS011;6894;52.196;9.904;2023-07-24T09:59:17;3.17;;;2.00;;
13641;SDS011;6894;52.196;9.904;2023-07-24T10:01:47;3.43;;;1.60;;
13641;SDS011;6894;52.196;9.904;2023-07-24T10:04:15;2.10;;;1.80;;
13641;SDS011;6894;52.196;9.904;2023-07-24T10:06:42;3.30;;;1.70;;
13641;SDS011;6894;52.196;9.904;2023-07-24T10:09:10;2.50;;;1.63;;
13641;SDS011;6894;52.196;9.904;2023-07-24T10:11:38;2.20;;;2.00;;
13641;SDS011;6894;52.196;9.904;2023-07-24T10:14:05;2.07;;;1.87;;
13641;SDS011;6894;52.196;9.904;2023-07-24T10:16:32;1.60;;;1.50;;
13641;SDS011;6894;52.196;9.904;2023-07-24T10:19:00;1.90;;;1.70;;
13641;SDS011;6894;52.196;9.904;2023-07-24T10:21:27;1.80;;;1.70;;
13641;SDS011;6894;52.196;9.904;2023-07-24T10:23:54;2.10;;;1.90;;
13641;SDS011;6894;52.196;9.904;2023-07-24T10:26:24;4.23;;;2.00;;
13641;SDS011;6894;52.196;9.904;2023-07-24T10:28:51;2.20;;;2.00;;
13641;SDS011;6894;52.196;9.904;2023-07-24T10:31:19;5.07;;;2.07;;
13641;SDS011;6894;52.196;9.904;2023-07-24T10:33:46;2.43;;;2.23;;
13641;SDS011;6894;52.196;9.904;2023-07-24T10:36:16;2.13;;;1.93;;
13641;SDS011;6894;52.196;9.904;2023-07-24T10:38:45;2.77;;;1.77;;
13641;SDS011;6894;52.196;9.904;2023-07-24T10:41:13;3.43;;;2.57;;
13641;SDS011;6894;52.196;9.904;2023-07-24T10:43:40;2.73;;;2.47;;
13641;SDS011;6894;52.196;9.904;2023-07-24T10:46:08;3.07;;;2.20;;
13641;SDS011;6894;52.196;9.904;2023-07-24T10:48:35;2.40;;;2.20;;
13641;SDS011;6894;52.196;9.904;2023-07-24T10:51:06;3.47;;;2.17;;
13641;SDS011;6894;52.196;9.904;2023-07-24T10:53:35;3.10;;;2.47;;
13641;SDS011;6894;52.196;9.904;2023-07-24T10:56:03;2.80;;;2.43;;
13641;SDS011;6894;52.196;9.904;2023-07-24T10:58:31;4.00;;;2.40;;
13641;SDS011;6894;52.196;9.904;2023-07-24T11:00:58;2.97;;;2.67;;
13641;SDS011;6894;52.196;9.904;2023-07-24T11:03:25;2.83;;;2.47;;
13641;SDS011;6894;52.196;9.904;2023-07-24T11:05:53;3.03;;;2.83;;
13641;SDS011;6894;52.196;9.904;2023-07-24T11:08:20;3.00;;;2.75;;
13641;SDS011;6894;52.196;9.904;2023-07-24T11:10:49;3.38;;;2.63;;
13641;SDS011;6894;52.196;9.904;2023-07-24T11:13:17;2.85;;;2.65;;
13641;SDS011;6894;52.196;9.904;2023-07-24T11:15:45;4.35;;;3.10;;
13641;SDS011;6894;52.196;9.904;2023-07-24T11:18:12;3.30;;;2.75;;
13641;SDS011;6894;52.196;9.904;2023-07-24T11:20:43;2.88;;;2.67;;
13641;SDS011;6894;52.196;9.904;2023-07-24T11:23:11;2.95;;;2.67;;
13641;SDS011;6894;52.196;9.904;2023-07-24T11:25:38;3.15;;;2.80;;
13641;SDS011;6894;52.196;9.904;2023-07-24T11:28:07;2.88;;;2.67;;
13641;SDS011;6894;52.196;9.904;2023-07-24T11:30:35;2.85;;;2.30;;
13641;SDS011;6894;52.196;9.904;2023-07-24T11:33:03;2.85;;;2.65;;
13641;SDS011;6894;52.196;9.904;2023-07-24T11:35:32;2.83;;;2.63;;
13641;SDS011;6894;52.196;9.904;2023-07-24T11:38:00;3.78;;;2.50;;
13641;SDS011;6894;52.196;9.904;2023-07-24T11:40:30;3.50;;;2.50;;
13641;SDS011;6894;52.196;9.904;2023-07-24T11:42:58;3.08;;;2.42;;
13641;SDS011;6894;52.196;9.904;2023-07-24T11:45:26;3.72;;;2.47;;
13641;SDS011;6894;52.196;9.904;2023-07-24T11:47:53;4.18;;;2.75;;
13641;SDS011;6894;52.196;9.904;2023-07-24T11:50:21;3.75;;;2.90;;
13641;SDS011;6894;52.196;9.904;2023-07-24T11:52:50;3.63;;;2.70;;
13641;SDS011;6894;52.196;9.904;2023-07-24T11:55:18;7.78;;;2.80;;
13641;SDS011;6894;52.196;9.904;2023-07-24T11:57:55;3.03;;;2.75;;
13641;SDS011;6894;52.196;9.904;2023-07-24T12:00:22;3.95;;;2.95;;
13641;SDS011;6894;52.196;9.904;2023-07-24T12:02:51;3.28;;;2.60;;
13641;SDS011;6894;52.196;9.904;2023-07-24T12:05:18;3.00;;;2.70;;
13641;SDS011;6894;52.196;9.904;2023-07-24T12:07:45;3.30;;;3.05;;
13641;SDS011;6894;52.196;9.904;2023-07-24T12:10:12;2.83;;;2.63;;
13641;SDS011;6894;52.196;9.904;2023-07-24T12:12:50;3.63;;;3.20;;
13641;SDS011;6894;52.196;9.904;2023-07-24T12:15:17;5.07;;;2.90;;
13641;SDS011;6894;52.196;9.904;2023-07-24T12:17:43;3.03;;;2.83;;
13641;SDS011;6894;52.196;9.904;2023-07-24T12:20:11;3.15;;;2.83;;
13641;SDS011;6894;52.196;9.904;2023-07-24T12:22:38;2.80;;;2.55;;
13641;SDS011;6894;52.196;9.904;2023-07-24T12:25:05;2.72;;;2.53;;
13641;SDS011;6894;52.196;9.904;2023-07-24T12:27:33;2.60;;;2.40;;
13641;SDS011;6894;52.196;9.904;2023-07-24T12:29:59;4.32;;;3.60;;
13641;SDS011;6894;52.196;9.904;2023-07-24T12:32:26;4.07;;;3.25;;
13641;SDS011;6894;52.196;9.904;2023-07-24T12:34:53;4.28;;;3.65;;
13641;SDS011;6894;52.196;9.904;2023-07-24T12:37:21;4.55;;;3.25;;
13641;SDS011;6894;52.196;9.904;2023-07-24T12:39:48;4.82;;;3.67;;
13641;SDS011;6894;52.196;9.904;2023-07-24T12:42:15;3.63;;;3.33;;
13641;SDS011;6894;52.196;9.904;2023-07-24T12:44:43;3.75;;;3.42;;
13641;SDS011;6894;52.196;9.904;2023-07-24T12:47:10;4.10;;;3.10;;
13641;SDS011;6894;52.196;9.904;2023-07-24T12:49:37;3.88;;;3.58;;
13641;SDS011;6894;52.196;9.904;2023-07-24T12:52:03;3.65;;;3.33;;
13641;SDS011;6894;52.196;9.904;2023-07-24T12:54:33;3.40;;;3.10;;
13641;SDS011;6894;52.196;9.904;2023-07-24T12:57:00;3.77;;;3.47;;
13641;SDS011;6894;52.196;9.904;2023-07-24T12:59:27;3.90;;;3.60;;
13641;SDS011;6894;52.196;9.904;2023-07-24T13:01:54;3.90;;;3.20;;
13641;SDS011;6894;52.196;9.904;2023-07-24T13:04:22;3.45;;;3.13;;
13641;SDS011;6894;52.196;9.904;2023-07-24T13:06:49;3.57;;;2.93;;
13641;SDS011;6894;52.196;9.904;2023-07-24T13:09:15;4.83;;;3.20;;
13641;SDS011;6894;52.196;9.904;2023-07-24T13:11:45;3.40;;;3.03;;
13641;SDS011;6894;52.196;9.904;2023-07-24T13:14:13;3.67;;;2.90;;
13641;SDS011;6894;52.196;9.904;2023-07-24T13:16:40;2.70;;;2.50;;
13641;SDS011;6894;52.196;9.904;2023-07-24T13:19:07;3.70;;;2.87;;
13641;SDS011;6894;52.196;9.904;2023-07-24T13:21:33;4.10;;;2.80;;
13641;SDS011;6894;52.196;9.904;2023-07-24T13:24:00;3.13;;;2.42;;
13641;SDS011;6894;52.196;9.904;2023-07-24T13:26:27;2.38;;;2.17;;
13641;SDS011;6894;52.196;9.904;2023-07-24T13:28:55;3.13;;;2.60;;
13641;SDS011;6894;52.196;9.904;2023-07-24T13:31:21;2.67;;;2.28;;
13641;SDS011;6894;52.196;9.904;2023-07-24T13:33:48;3.85;;;2.50;;
13641;SDS011;6894;52.196;9.904;2023-07-24T13:36:15;2.92;;;2.67;;
13641;SDS011;6894;52.196;9.904;2023-07-24T13:38:41;4.32;;;2.83;;
13641;SDS011;6894;52.196;9.904;2023-07-24T13:41:08;3.38;;;3.08;;
13641;SDS011;6894;52.196;9.904;2023-07-24T13:43:35;2.97;;;2.72;;
13641;SDS011;6894;52.196;9.904;2023-07-24T13:46:03;3.10;;;2.90;;
13641;SDS011;6894;52.196;9.904;2023-07-24T13:48:30;3.10;;;2.70;;
13641;SDS011;6894;52.196;9.904;2023-07-24T13:50:57;3.65;;;2.70;;
13641;SDS011;6894;52.196;9.904;2023-07-24T13:53:23;3.17;;;2.90;;
13641;SDS011;6894;52.196;9.904;2023-07-24T13:55:50;2.97;;;2.70;;
13641;SDS011;6894;52.196;9.904;2023-07-24T13:58:17;3.50;;;3.20;;
13641;SDS011;6894;52.196;9.904;2023-07-24T14:00:44;3.88;;;3.58;;
13641;SDS011;6894;52.196;9.904;2023-07-24T14:03:12;3.88;;;3.45;;
13641;SDS011;6894;52.196;9.904;2023-07-24T14:05:38;4.30;;;3.90;;
13641;SDS011;6894;52.196;9.904;2023-07-24T14:08:06;3.67;;;3.38;;
13641;SDS011;6894;52.196;9.904;2023-07-24T14:10:33;3.75;;;3.35;;
13641;SDS011;6894;52.196;9.904;2023-07-24T14:13:00;3.90;;;3.60;;
13641;SDS011;6894;52.196;9.904;2023-07-24T14:15:27;3.93;;;3.60;;
13641;SDS011;6894;52.196;9.904;2023-07-24T14:17:54;4.37;;;3.77;;
13641;SDS011;6894;52.196;9.904;2023-07-24T14:20:22;3.57;;;3.30;;
13641;SDS011;6894;52.196;9.904;2023-07-24T14:22:49;4.90;;;2.43;;
13641;SDS011;6894;52.196;9.904;2023-07-24T14:25:15;2.93;;;1.40;;
13641;SDS011;6894;52.196;9.904;2023-07-24T14:27:42;2.63;;;1.40;;
13641;SDS011;6894;52.196;9.904;2023-07-24T14:30:09;4.90;;;2.93;;
13641;SDS011;6894;52.196;9.904;2023-07-24T14:32:36;4.60;;;2.63;;
13641;SDS011;6894;52.196;9.904;2023-07-24T14:35:03;2.97;;;1.87;;
13641;SDS011;6894;52.196;9.904;2023-07-24T14:37:32;1.93;;;1.67;;
13641;SDS011;6894;52.196;9.904;2023-07-24T14:39:58;2.20;;;1.50;;
13641;SDS011;6894;52.196;9.904;2023-07-24T14:42:25;3.10;;;2.10;;
13641;SDS011;6894;52.196;9.904;2023-07-24T14:44:52;3.87;;;2.47;;
13641;SDS011;6894;52.196;9.904;2023-07-24T14:47:18;5.20;;;3.13;;
13641;SDS011;6894;52.196;9.904;2023-07-24T14:49:45;4.10;;;2.50;;
13641;SDS011;6894;52.196;9.904;2023-07-24T14:52:12;3.77;;;2.47;;
13641;SDS011;6894;52.196;9.904;2023-07-24T14:54:40;4.53;;;2.80;;
13641;SDS011;6894;52.196;9.904;2023-07-24T14:57:07;3.47;;;2.60;;
13641;SDS011;6894;52.196;9.904;2023-07-24T14:59:36;3.20;;;2.10;;
13641;SDS011;6894;52.196;9.904;2023-07-24T15:02:03;3.70;;;2.50;;